sensor_id;sensor_type;location;lat;lon;timestamp;temperature;humidity
44111;DHT22;29774;52.664;5.074;2024-03-02T00:02:19;8.60;78.40
44111;DHT22;29774;52.664;5.074;2024-03-02T00:04:45;8.50;78.50
44111;DHT22;29774;52.664;5.074;2024-03-02T00:07:14;8.60;78.70
44111;DHT22;29774;52.664;5.074;2024-03-02T00:09:39;8.60;78.80
44111;DHT22;29774;52.664;5.074;2024-03-02T00:12:05;8.50;79.00
44111;DHT22;29774;52.664;5.074;2024-03-02T00:14:31;8.60;79.20
44111;DHT22;29774;52.664;5.074;2024-03-02T00:16:57;8.50;79.30
44111;DHT22;29774;52.664;5.074;2024-03-02T00:19:23;8.60;79.40
44111;DHT22;29774;52.664;5.074;2024-03-02T00:21:48;8.60;79.40
44111;DHT22;29774;52.664;5.074;2024-03-02T00:24:21;8.60;79.00
44111;DHT22;29774;52.664;5.074;2024-03-02T00:26:49;8.70;79.20
44111;DHT22;29774;52.664;5.074;2024-03-02T00:29:16;8.70;79.10
44111;DHT22;29774;52.664;5.074;2024-03-02T00:31:43;8.70;78.90
44111;DHT22;29774;52.664;5.074;2024-03-02T00:34:12;8.80;79.30
44111;DHT22;29774;52.664;5.074;2024-03-02T00:36:39;8.90;79.20
44111;DHT22;29774;52.664;5.074;2024-03-02T00:39:05;8.80;79.10
44111;DHT22;29774;52.664;5.074;2024-03-02T00:41:33;9.40;81.70
44111;DHT22;29774;52.664;5.074;2024-03-02T00:44:04;9.70;80.70
44111;DHT22;29774;52.664;5.074;2024-03-02T00:46:41;10.20;80.60
44111;DHT22;29774;52.664;5.074;2024-03-02T00:49:22;10.60;79.10
44111;DHT22;29774;52.664;5.074;2024-03-02T00:51:49;10.70;77.70
44111;DHT22;29774;52.664;5.074;2024-03-02T00:54:15;11.00;77.00
44111;DHT22;29774;52.664;5.074;2024-03-02T00:56:44;10.80;76.50
44111;DHT22;29774;52.664;5.074;2024-03-02T00:59:10;11.00;76.70
44111;DHT22;29774;52.664;5.074;2024-03-02T01:01:36;10.80;76.00
44111;DHT22;29774;52.664;5.074;2024-03-02T01:04:01;10.80;76.30
44111;DHT22;29774;52.664;5.074;2024-03-02T01:06:27;10.70;76.20
44111;DHT22;29774;52.664;5.074;2024-03-02T01:08:53;10.50;76.10
44111;DHT22;29774;52.664;5.074;2024-03-02T01:11:19;10.30;75.80
44111;DHT22;29774;52.664;5.074;2024-03-02T01:13:46;10.20;78.00
44111;DHT22;29774;52.664;5.074;2024-03-02T01:16:11;10.50;77.60
44111;DHT22;29774;52.664;5.074;2024-03-02T01:18:37;10.60;77.00
44111;DHT22;29774;52.664;5.074;2024-03-02T01:21:03;10.50;76.70
44111;DHT22;29774;52.664;5.074;2024-03-02T01:23:29;10.60;77.20
44111;DHT22;29774;52.664;5.074;2024-03-02T01:25:54;10.60;77.10
44111;DHT22;29774;52.664;5.074;2024-03-02T01:28:20;10.50;76.70
44111;DHT22;29774;52.664;5.074;2024-03-02T01:30:46;10.40;76.90
44111;DHT22;29774;52.664;5.074;2024-03-02T01:33:12;10.10;76.50
44111;DHT22;29774;52.664;5.074;2024-03-02T01:35:38;9.90;77.50
44111;DHT22;29774;52.664;5.074;2024-03-02T01:38:04;10.00;78.40
44111;DHT22;29774;52.664;5.074;2024-03-02T01:40:36;10.00;78.70
44111;DHT22;29774;52.664;5.074;2024-03-02T01:43:03;10.00;78.00
44111;DHT22;29774;52.664;5.074;2024-03-02T01:45:29;9.80;77.90
44111;DHT22;29774;52.664;5.074;2024-03-02T01:47:55;9.60;77.60
44111;DHT22;29774;52.664;5.074;2024-03-02T01:50:27;9.70;78.40
44111;DHT22;29774;52.664;5.074;2024-03-02T01:52:54;9.50;78.30
44111;DHT22;29774;52.664;5.074;2024-03-02T01:55:20;9.60;78.80
44111;DHT22;29774;52.664;5.074;2024-03-02T01:57:46;9.70;79.00
44111;DHT22;29774;52.664;5.074;2024-03-02T02:00:13;9.80;79.40
44111;DHT22;29774;52.664;5.074;2024-03-02T02:02:39;9.70;79.00
44111;DHT22;29774;52.664;5.074;2024-03-02T02:05:05;9.80;78.90
44111;DHT22;29774;52.664;5.074;2024-03-02T02:07:31;9.60;78.70
44111;DHT22;29774;52.664;5.074;2024-03-02T02:09:57;9.40;77.70
44111;DHT22;29774;52.664;5.074;2024-03-02T02:12:23;9.20;78.50
44111;DHT22;29774;52.664;5.074;2024-03-02T02:14:50;9.40;79.90
44111;DHT22;29774;52.664;5.074;2024-03-02T02:17:16;9.80;80.50
44111;DHT22;29774;52.664;5.074;2024-03-02T02:19:42;10.20;80.30
44111;DHT22;29774;52.664;5.074;2024-03-02T02:22:08;10.30;79.30
44111;DHT22;29774;52.664;5.074;2024-03-02T02:24:34;10.40;78.80
44111;DHT22;29774;52.664;5.074;2024-03-02T02:27:00;10.50;78.30
44111;DHT22;29774;52.664;5.074;2024-03-02T02:29:26;10.40;77.50
44111;DHT22;29774;52.664;5.074;2024-03-02T02:31:51;10.40;77.70
44111;DHT22;29774;52.664;5.074;2024-03-02T02:34:17;10.20;77.10
44111;DHT22;29774;52.664;5.074;2024-03-02T02:36:42;10.30;77.80
44111;DHT22;29774;52.664;5.074;2024-03-02T02:39:11;10.40;77.10
44111;DHT22;29774;52.664;5.074;2024-03-02T02:41:38;10.40;76.90
44111;DHT22;29774;52.664;5.074;2024-03-02T02:44:04;10.50;77.70
44111;DHT22;29774;52.664;5.074;2024-03-02T02:46:30;10.40;76.90
44111;DHT22;29774;52.664;5.074;2024-03-02T02:48:56;10.10;77.40
44111;DHT22;29774;52.664;5.074;2024-03-02T02:51:21;9.90;76.30
44111;DHT22;29774;52.664;5.074;2024-03-02T02:53:47;10.10;78.10
44111;DHT22;29774;52.664;5.074;2024-03-02T02:56:12;9.80;78.00
44111;DHT22;29774;52.664;5.074;2024-03-02T02:58:39;9.80;77.80
44111;DHT22;29774;52.664;5.074;2024-03-02T03:01:05;10.00;78.90
44111;DHT22;29774;52.664;5.074;2024-03-02T03:03:30;10.10;78.50
44111;DHT22;29774;52.664;5.074;2024-03-02T03:05:56;10.10;77.70
44111;DHT22;29774;52.664;5.074;2024-03-02T03:08:22;10.00;78.00
44111;DHT22;29774;52.664;5.074;2024-03-02T03:10:49;10.10;78.40
44111;DHT22;29774;52.664;5.074;2024-03-02T03:13:15;9.90;77.50
44111;DHT22;29774;52.664;5.074;2024-03-02T03:15:40;9.70;78.00
44111;DHT22;29774;52.664;5.074;2024-03-02T03:18:06;9.90;78.50
44111;DHT22;29774;52.664;5.074;2024-03-02T03:20:36;10.00;78.80
44111;DHT22;29774;52.664;5.074;2024-03-02T03:23:01;10.00;78.30
44111;DHT22;29774;52.664;5.074;2024-03-02T03:25:29;9.80;78.00
44111;DHT22;29774;52.664;5.074;2024-03-02T03:27:55;9.70;78.10
44111;DHT22;29774;52.664;5.074;2024-03-02T03:30:20;9.70;77.60
44111;DHT22;29774;52.664;5.074;2024-03-02T03:32:46;9.80;79.10
44111;DHT22;29774;52.664;5.074;2024-03-02T03:35:13;9.80;78.40
44111;DHT22;29774;52.664;5.074;2024-03-02T03:37:40;9.50;77.60
44111;DHT22;29774;52.664;5.074;2024-03-02T03:40:06;9.50;78.40
44111;DHT22;29774;52.664;5.074;2024-03-02T03:42:37;9.40;78.50
44111;DHT22;29774;52.664;5.074;2024-03-02T03:45:04;9.70;78.80
44111;DHT22;29774;52.664;5.074;2024-03-02T03:47:31;9.30;78.00
44111;DHT22;29774;52.664;5.074;2024-03-02T03:49:57;9.20;78.40
44111;DHT22;29774;52.664;5.074;2024-03-02T03:52:23;9.40;79.70
44111;DHT22;29774;52.664;5.074;2024-03-02T03:54:49;9.70;80.00
44111;DHT22;29774;52.664;5.074;2024-03-02T03:57:14;9.70;79.10
44111;DHT22;29774;52.664;5.074;2024-03-02T03:59:40;10.00;79.60
44111;DHT22;29774;52.664;5.074;2024-03-02T04:02:06;10.00;78.50
44111;DHT22;29774;52.664;5.074;2024-03-02T04:04:32;10.30;78.60
44111;DHT22;29774;52.664;5.074;2024-03-02T04:06:59;10.10;77.30
44111;DHT22;29774;52.664;5.074;2024-03-02T04:09:24;10.00;77.60
44111;DHT22;29774;52.664;5.074;2024-03-02T04:11:51;10.00;77.50
44111;DHT22;29774;52.664;5.074;2024-03-02T04:14:16;9.80;77.10
44111;DHT22;29774;52.664;5.074;2024-03-02T04:16:42;9.60;77.20
44111;DHT22;29774;52.664;5.074;2024-03-02T04:19:08;9.70;78.20
44111;DHT22;29774;52.664;5.074;2024-03-02T04:21:33;10.00;78.90
44111;DHT22;29774;52.664;5.074;2024-03-02T04:23:59;9.70;77.20
44111;DHT22;29774;52.664;5.074;2024-03-02T04:26:25;9.70;77.60
44111;DHT22;29774;52.664;5.074;2024-03-02T04:28:51;9.50;77.70
44111;DHT22;29774;52.664;5.074;2024-03-02T04:31:17;9.50;78.20
44111;DHT22;29774;52.664;5.074;2024-03-02T04:33:43;9.50;78.30
44111;DHT22;29774;52.664;5.074;2024-03-02T04:36:08;9.50;78.20
44111;DHT22;29774;52.664;5.074;2024-03-02T04:38:39;9.40;77.90
44111;DHT22;29774;52.664;5.074;2024-03-02T04:41:06;9.40;78.60
44111;DHT22;29774;52.664;5.074;2024-03-02T04:43:32;9.30;78.20
44111;DHT22;29774;52.664;5.074;2024-03-02T04:45:58;9.30;78.50
44111;DHT22;29774;52.664;5.074;2024-03-02T04:48:24;9.50;78.70
44111;DHT22;29774;52.664;5.074;2024-03-02T04:50:50;9.40;78.60
44111;DHT22;29774;52.664;5.074;2024-03-02T04:53:15;9.40;78.90
44111;DHT22;29774;52.664;5.074;2024-03-02T04:55:41;9.20;78.00
44111;DHT22;29774;52.664;5.074;2024-03-02T04:58:06;9.30;79.60
44111;DHT22;29774;52.664;5.074;2024-03-02T05:00:33;9.50;79.10
44111;DHT22;29774;52.664;5.074;2024-03-02T05:02:58;9.20;77.90
44111;DHT22;29774;52.664;5.074;2024-03-02T05:05:24;9.00;78.40
44111;DHT22;29774;52.664;5.074;2024-03-02T05:07:49;9.00;79.40
44111;DHT22;29774;52.664;5.074;2024-03-02T05:10:15;9.60;80.40
44111;DHT22;29774;52.664;5.074;2024-03-02T05:12:41;9.70;79.70
44111;DHT22;29774;52.664;5.074;2024-03-02T05:15:11;9.80;79.10
44111;DHT22;29774;52.664;5.074;2024-03-02T05:17:37;9.70;78.10
44111;DHT22;29774;52.664;5.074;2024-03-02T05:20:06;9.40;77.30
44111;DHT22;29774;52.664;5.074;2024-03-02T05:22:36;9.20;77.50
44111;DHT22;29774;52.664;5.074;2024-03-02T05:25:03;9.00;78.20
44111;DHT22;29774;52.664;5.074;2024-03-02T05:27:29;8.90;78.00
44111;DHT22;29774;52.664;5.074;2024-03-02T05:29:55;8.90;78.60
44111;DHT22;29774;52.664;5.074;2024-03-02T05:32:21;9.00;78.00
44111;DHT22;29774;52.664;5.074;2024-03-02T05:34:46;9.40;80.60
44111;DHT22;29774;52.664;5.074;2024-03-02T05:37:12;9.40;79.90
44111;DHT22;29774;52.664;5.074;2024-03-02T05:39:37;9.50;79.60
44111;DHT22;29774;52.664;5.074;2024-03-02T05:42:03;9.50;78.60
44111;DHT22;29774;52.664;5.074;2024-03-02T05:44:29;9.60;79.10
44111;DHT22;29774;52.664;5.074;2024-03-02T05:46:55;9.50;78.30
44111;DHT22;29774;52.664;5.074;2024-03-02T05:49:21;9.50;78.30
44111;DHT22;29774;52.664;5.074;2024-03-02T05:51:47;9.40;78.00
44111;DHT22;29774;52.664;5.074;2024-03-02T05:54:13;9.40;78.30
44111;DHT22;29774;52.664;5.074;2024-03-02T05:56:38;9.40;78.60
44111;DHT22;29774;52.664;5.074;2024-03-02T05:59:04;9.30;78.20
44111;DHT22;29774;52.664;5.074;2024-03-02T06:01:35;9.10;77.90
44111;DHT22;29774;52.664;5.074;2024-03-02T06:04:01;8.90;77.30
44111;DHT22;29774;52.664;5.074;2024-03-02T06:06:26;8.90;77.90
44111;DHT22;29774;52.664;5.074;2024-03-02T06:08:52;8.80;78.40
44111;DHT22;29774;52.664;5.074;2024-03-02T06:11:21;9.00;78.90
44111;DHT22;29774;52.664;5.074;2024-03-02T06:13:46;9.10;79.80
44111;DHT22;29774;52.664;5.074;2024-03-02T06:16:12;8.80;78.10
44111;DHT22;29774;52.664;5.074;2024-03-02T06:18:38;8.50;78.00
44111;DHT22;29774;52.664;5.074;2024-03-02T06:21:04;8.60;79.00
44111;DHT22;29774;52.664;5.074;2024-03-02T06:23:29;8.30;78.20
44111;DHT22;29774;52.664;5.074;2024-03-02T06:25:55;8.50;79.60
44111;DHT22;29774;52.664;5.074;2024-03-02T06:28:21;8.70;79.90
44111;DHT22;29774;52.664;5.074;2024-03-02T06:30:46;8.70;79.60
44111;DHT22;29774;52.664;5.074;2024-03-02T06:33:12;8.80;79.30
44111;DHT22;29774;52.664;5.074;2024-03-02T06:35:37;8.80;80.00
44111;DHT22;29774;52.664;5.074;2024-03-02T06:38:04;9.00;80.20
44111;DHT22;29774;52.664;5.074;2024-03-02T06:40:30;9.10;79.80
44111;DHT22;29774;52.664;5.074;2024-03-02T06:42:55;8.90;78.90
44111;DHT22;29774;52.664;5.074;2024-03-02T06:45:21;8.50;78.20
44111;DHT22;29774;52.664;5.074;2024-03-02T06:47:46;8.20;78.40
44111;DHT22;29774;52.664;5.074;2024-03-02T06:50:12;8.40;79.20
44111;DHT22;29774;52.664;5.074;2024-03-02T06:52:38;8.30;79.40
44111;DHT22;29774;52.664;5.074;2024-03-02T06:55:04;8.10;78.50
44111;DHT22;29774;52.664;5.074;2024-03-02T06:57:30;8.20;79.80
44111;DHT22;29774;52.664;5.074;2024-03-02T06:59:56;8.50;80.70
44111;DHT22;29774;52.664;5.074;2024-03-02T07:02:24;8.70;80.50
44111;DHT22;29774;52.664;5.074;2024-03-02T07:04:54;8.40;78.80
44111;DHT22;29774;52.664;5.074;2024-03-02T07:07:20;8.30;78.80
44111;DHT22;29774;52.664;5.074;2024-03-02T07:09:46;8.70;80.90
44111;DHT22;29774;52.664;5.074;2024-03-02T07:12:12;8.70;79.40
44111;DHT22;29774;52.664;5.074;2024-03-02T07:14:37;8.70;79.60
44111;DHT22;29774;52.664;5.074;2024-03-02T07:17:22;9.00;79.40
44111;DHT22;29774;52.664;5.074;2024-03-02T07:19:47;8.90;78.90
44111;DHT22;29774;52.664;5.074;2024-03-02T07:22:13;9.10;78.90
44111;DHT22;29774;52.664;5.074;2024-03-02T07:24:42;9.20;79.20
44111;DHT22;29774;52.664;5.074;2024-03-02T07:27:09;9.20;78.70
44111;DHT22;29774;52.664;5.074;2024-03-02T07:29:34;9.50;79.80
44111;DHT22;29774;52.664;5.074;2024-03-02T07:32:00;9.70;79.90
44111;DHT22;29774;52.664;5.074;2024-03-02T07:34:26;9.70;77.80
44111;DHT22;29774;52.664;5.074;2024-03-02T07:36:52;9.50;77.40
44111;DHT22;29774;52.664;5.074;2024-03-02T07:39:18;9.50;77.80
44111;DHT22;29774;52.664;5.074;2024-03-02T07:41:45;9.70;77.50
44111;DHT22;29774;52.664;5.074;2024-03-02T07:44:12;9.60;77.20
44111;DHT22;29774;52.664;5.074;2024-03-02T07:46:42;9.60;77.20
44111;DHT22;29774;52.664;5.074;2024-03-02T07:49:08;9.80;78.20
44111;DHT22;29774;52.664;5.074;2024-03-02T07:51:34;9.80;76.90
44111;DHT22;29774;52.664;5.074;2024-03-02T07:53:59;9.70;76.90
44111;DHT22;29774;52.664;5.074;2024-03-02T07:56:25;9.70;76.70
44111;DHT22;29774;52.664;5.074;2024-03-02T07:58:51;9.70;76.30
44111;DHT22;29774;52.664;5.074;2024-03-02T08:01:17;9.70;76.20
44111;DHT22;29774;52.664;5.074;2024-03-02T08:03:43;9.50;75.70
44111;DHT22;29774;52.664;5.074;2024-03-02T08:06:16;9.50;76.50
44111;DHT22;29774;52.664;5.074;2024-03-02T08:08:42;9.70;76.80
44111;DHT22;29774;52.664;5.074;2024-03-02T08:11:08;9.60;76.30
44111;DHT22;29774;52.664;5.074;2024-03-02T08:13:34;9.60;75.90
44111;DHT22;29774;52.664;5.074;2024-03-02T08:16:00;9.60;75.90
44111;DHT22;29774;52.664;5.074;2024-03-02T08:18:28;9.50;74.70
44111;DHT22;29774;52.664;5.074;2024-03-02T08:20:54;9.40;75.70
44111;DHT22;29774;52.664;5.074;2024-03-02T08:23:20;9.60;76.60
44111;DHT22;29774;52.664;5.074;2024-03-02T08:25:46;9.80;77.50
44111;DHT22;29774;52.664;5.074;2024-03-02T08:28:12;9.70;75.90
44111;DHT22;29774;52.664;5.074;2024-03-02T08:30:38;9.80;76.40
44111;DHT22;29774;52.664;5.074;2024-03-02T08:33:03;9.90;76.30
44111;DHT22;29774;52.664;5.074;2024-03-02T08:35:29;9.90;76.20
44111;DHT22;29774;52.664;5.074;2024-03-02T08:37:57;10.00;75.80
44111;DHT22;29774;52.664;5.074;2024-03-02T08:40:23;9.90;75.20
44111;DHT22;29774;52.664;5.074;2024-03-02T08:42:48;10.10;76.00
44111;DHT22;29774;52.664;5.074;2024-03-02T08:45:14;10.20;75.80
44111;DHT22;29774;52.664;5.074;2024-03-02T08:47:41;10.20;75.40
44111;DHT22;29774;52.664;5.074;2024-03-02T08:50:07;10.20;75.00
44111;DHT22;29774;52.664;5.074;2024-03-02T08:52:33;10.20;74.50
44111;DHT22;29774;52.664;5.074;2024-03-02T08:54:59;10.20;74.50
44111;DHT22;29774;52.664;5.074;2024-03-02T08:57:25;10.40;75.60
44111;DHT22;29774;52.664;5.074;2024-03-02T08:59:50;10.30;74.00
44111;DHT22;29774;52.664;5.074;2024-03-02T09:02:16;10.30;74.30
44111;DHT22;29774;52.664;5.074;2024-03-02T09:04:42;10.50;75.00
44111;DHT22;29774;52.664;5.074;2024-03-02T09:07:07;10.50;74.30
44111;DHT22;29774;52.664;5.074;2024-03-02T09:09:33;10.50;74.10
44111;DHT22;29774;52.664;5.074;2024-03-02T09:11:59;10.50;73.50
44111;DHT22;29774;52.664;5.074;2024-03-02T09:14:24;10.50;73.20
44111;DHT22;29774;52.664;5.074;2024-03-02T09:16:50;10.60;73.50
44111;DHT22;29774;52.664;5.074;2024-03-02T09:19:16;10.60;72.70
44111;DHT22;29774;52.664;5.074;2024-03-02T09:21:42;10.60;72.30
44111;DHT22;29774;52.664;5.074;2024-03-02T09:24:09;10.60;72.00
44111;DHT22;29774;52.664;5.074;2024-03-02T09:26:35;10.70;72.30
44111;DHT22;29774;52.664;5.074;2024-03-02T09:29:01;10.70;72.50
44111;DHT22;29774;52.664;5.074;2024-03-02T09:31:27;10.70;72.10
44111;DHT22;29774;52.664;5.074;2024-03-02T09:33:52;10.70;71.90
44111;DHT22;29774;52.664;5.074;2024-03-02T09:36:19;10.80;71.90
44111;DHT22;29774;52.664;5.074;2024-03-02T09:38:45;10.90;72.20
44111;DHT22;29774;52.664;5.074;2024-03-02T09:41:11;10.90;72.30
44111;DHT22;29774;52.664;5.074;2024-03-02T09:43:37;11.00;72.70
44111;DHT22;29774;52.664;5.074;2024-03-02T09:46:03;11.00;71.40
44111;DHT22;29774;52.664;5.074;2024-03-02T09:48:29;11.10;71.90
44111;DHT22;29774;52.664;5.074;2024-03-02T09:50:55;11.10;70.30
44111;DHT22;29774;52.664;5.074;2024-03-02T09:53:22;11.20;70.60
44111;DHT22;29774;52.664;5.074;2024-03-02T09:55:48;11.20;71.10
44111;DHT22;29774;52.664;5.074;2024-03-02T09:58:14;11.20;71.00
44111;DHT22;29774;52.664;5.074;2024-03-02T10:00:40;11.30;69.90
44111;DHT22;29774;52.664;5.074;2024-03-02T10:03:05;11.30;70.20
44111;DHT22;29774;52.664;5.074;2024-03-02T10:05:51;11.30;70.40
44111;DHT22;29774;52.664;5.074;2024-03-02T10:08:17;11.50;70.40
44111;DHT22;29774;52.664;5.074;2024-03-02T10:10:43;11.50;70.50
44111;DHT22;29774;52.664;5.074;2024-03-02T10:13:10;11.60;70.20
44111;DHT22;29774;52.664;5.074;2024-03-02T10:15:37;11.70;70.10
44111;DHT22;29774;52.664;5.074;2024-03-02T10:18:04;11.70;69.90
44111;DHT22;29774;52.664;5.074;2024-03-02T10:20:30;11.70;69.60
44111;DHT22;29774;52.664;5.074;2024-03-02T10:23:11;11.80;69.90
44111;DHT22;29774;52.664;5.074;2024-03-02T10:25:38;11.80;69.80
44111;DHT22;29774;52.664;5.074;2024-03-02T10:28:04;11.90;69.50
44111;DHT22;29774;52.664;5.074;2024-03-02T10:30:32;12.00;69.10
44111;DHT22;29774;52.664;5.074;2024-03-02T10:32:58;12.00;68.90
44111;DHT22;29774;52.664;5.074;2024-03-02T10:35:24;12.10;68.70
44111;DHT22;29774;52.664;5.074;2024-03-02T10:37:52;12.20;68.30
44111;DHT22;29774;52.664;5.074;2024-03-02T10:40:18;12.20;68.00
44111;DHT22;29774;52.664;5.074;2024-03-02T10:42:47;12.30;67.40
44111;DHT22;29774;52.664;5.074;2024-03-02T10:45:15;12.30;67.30
44111;DHT22;29774;52.664;5.074;2024-03-02T10:47:42;12.30;67.10
44111;DHT22;29774;52.664;5.074;2024-03-02T10:50:09;12.40;67.30
44111;DHT22;29774;52.664;5.074;2024-03-02T10:52:35;12.40;67.10
44111;DHT22;29774;52.664;5.074;2024-03-02T10:55:01;12.50;67.20
44111;DHT22;29774;52.664;5.074;2024-03-02T10:57:35;12.60;67.00
44111;DHT22;29774;52.664;5.074;2024-03-02T11:00:06;12.80;65.90
44111;DHT22;29774;52.664;5.074;2024-03-02T11:02:34;12.80;65.50
44111;DHT22;29774;52.664;5.074;2024-03-02T11:05:05;12.90;65.30
44111;DHT22;29774;52.664;5.074;2024-03-02T11:07:33;12.90;64.50
44111;DHT22;29774;52.664;5.074;2024-03-02T11:10:01;12.90;65.20
44111;DHT22;29774;52.664;5.074;2024-03-02T11:12:38;12.90;64.90
44111;DHT22;29774;52.664;5.074;2024-03-02T11:15:18;12.90;65.00
44111;DHT22;29774;52.664;5.074;2024-03-02T11:17:47;13.00;65.00
44111;DHT22;29774;52.664;5.074;2024-03-02T11:20:13;13.10;64.90
44111;DHT22;29774;52.664;5.074;2024-03-02T11:22:40;13.20;63.80
44111;DHT22;29774;52.664;5.074;2024-03-02T11:25:26;13.30;63.70
44111;DHT22;29774;52.664;5.074;2024-03-02T11:33:05;13.10;63.50
44111;DHT22;29774;52.664;5.074;2024-03-02T11:35:44;13.20;63.70
44111;DHT22;29774;52.664;5.074;2024-03-02T11:38:13;13.20;63.90
44111;DHT22;29774;52.664;5.074;2024-03-02T11:40:42;13.00;63.20
44111;DHT22;29774;52.664;5.074;2024-03-02T11:43:07;13.10;63.30
44111;DHT22;29774;52.664;5.074;2024-03-02T11:45:35;13.20;63.10
44111;DHT22;29774;52.664;5.074;2024-03-02T11:48:06;13.20;62.60
44111;DHT22;29774;52.664;5.074;2024-03-02T11:50:36;13.20;62.60
44111;DHT22;29774;52.664;5.074;2024-03-02T11:53:09;13.20;63.90
44111;DHT22;29774;52.664;5.074;2024-03-02T11:55:36;13.20;63.70
44111;DHT22;29774;52.664;5.074;2024-03-02T11:58:04;13.20;61.00
44111;DHT22;29774;52.664;5.074;2024-03-02T12:00:30;13.40;60.50
44111;DHT22;29774;52.664;5.074;2024-03-02T12:03:04;13.40;60.90
44111;DHT22;29774;52.664;5.074;2024-03-02T12:05:30;13.40;62.40
44111;DHT22;29774;52.664;5.074;2024-03-02T12:07:57;13.30;62.50
44111;DHT22;29774;52.664;5.074;2024-03-02T12:10:23;13.30;61.00
44111;DHT22;29774;52.664;5.074;2024-03-02T12:12:55;13.40;61.10
44111;DHT22;29774;52.664;5.074;2024-03-02T12:15:29;13.50;61.00
44111;DHT22;29774;52.664;5.074;2024-03-02T12:17:55;13.50;59.90
44111;DHT22;29774;52.664;5.074;2024-03-02T12:20:22;13.60;60.80
44111;DHT22;29774;52.664;5.074;2024-03-02T12:22:52;13.70;58.80
44111;DHT22;29774;52.664;5.074;2024-03-02T12:25:20;13.70;58.60
44111;DHT22;29774;52.664;5.074;2024-03-02T12:27:47;13.80;58.20
44111;DHT22;29774;52.664;5.074;2024-03-02T12:30:16;13.80;58.70
44111;DHT22;29774;52.664;5.074;2024-03-02T12:32:41;13.80;57.70
44111;DHT22;29774;52.664;5.074;2024-03-02T12:35:07;13.90;57.90
44111;DHT22;29774;52.664;5.074;2024-03-02T12:37:33;13.80;56.50
44111;DHT22;29774;52.664;5.074;2024-03-02T12:39:59;13.70;56.50
44111;DHT22;29774;52.664;5.074;2024-03-02T12:42:25;13.60;57.00
44111;DHT22;29774;52.664;5.074;2024-03-02T12:44:53;13.30;57.30
44111;DHT22;29774;52.664;5.074;2024-03-02T12:47:20;13.20;58.00
44111;DHT22;29774;52.664;5.074;2024-03-02T12:49:46;13.00;57.50
44111;DHT22;29774;52.664;5.074;2024-03-02T12:52:14;12.80;58.00
44111;DHT22;29774;52.664;5.074;2024-03-02T12:54:40;12.60;58.20
44111;DHT22;29774;52.664;5.074;2024-03-02T12:57:06;12.60;59.00
44111;DHT22;29774;52.664;5.074;2024-03-02T12:59:31;12.40;58.30
44111;DHT22;29774;52.664;5.074;2024-03-02T13:01:57;12.30;58.00
44111;DHT22;29774;52.664;5.074;2024-03-02T13:04:27;12.20;58.40
44111;DHT22;29774;52.664;5.074;2024-03-02T13:06:57;12.20;59.00
44111;DHT22;29774;52.664;5.074;2024-03-02T13:09:23;12.00;58.80
44111;DHT22;29774;52.664;5.074;2024-03-02T13:11:49;12.00;59.20
44111;DHT22;29774;52.664;5.074;2024-03-02T13:14:15;12.00;59.80
44111;DHT22;29774;52.664;5.074;2024-03-02T13:16:41;11.90;60.20
44111;DHT22;29774;52.664;5.074;2024-03-02T13:19:11;11.90;60.60
44111;DHT22;29774;52.664;5.074;2024-03-02T13:21:37;11.80;60.40
44111;DHT22;29774;52.664;5.074;2024-03-02T13:24:04;11.70;60.80
44111;DHT22;29774;52.664;5.074;2024-03-02T13:26:30;11.70;61.40
44111;DHT22;29774;52.664;5.074;2024-03-02T13:28:56;11.60;60.70
44111;DHT22;29774;52.664;5.074;2024-03-02T13:31:21;11.50;61.30
44111;DHT22;29774;52.664;5.074;2024-03-02T13:33:47;11.50;60.30
44111;DHT22;29774;52.664;5.074;2024-03-02T13:36:13;11.50;61.10
44111;DHT22;29774;52.664;5.074;2024-03-02T13:38:39;11.40;61.20
44111;DHT22;29774;52.664;5.074;2024-03-02T13:41:05;11.30;60.70
44111;DHT22;29774;52.664;5.074;2024-03-02T13:43:30;11.30;60.30
44111;DHT22;29774;52.664;5.074;2024-03-02T13:46:01;11.20;60.70
44111;DHT22;29774;52.664;5.074;2024-03-02T13:48:27;11.30;62.10
44111;DHT22;29774;52.664;5.074;2024-03-02T13:50:53;11.20;62.60
44111;DHT22;29774;52.664;5.074;2024-03-02T13:53:19;11.30;62.50
44111;DHT22;29774;52.664;5.074;2024-03-02T13:55:45;11.20;62.20
44111;DHT22;29774;52.664;5.074;2024-03-02T13:58:11;11.20;62.70
44111;DHT22;29774;52.664;5.074;2024-03-02T14:00:37;11.20;62.70
44111;DHT22;29774;52.664;5.074;2024-03-02T14:03:07;11.10;63.10
44111;DHT22;29774;52.664;5.074;2024-03-02T14:05:33;11.10;62.80
44111;DHT22;29774;52.664;5.074;2024-03-02T14:07:59;11.10;62.40
44111;DHT22;29774;52.664;5.074;2024-03-02T14:10:26;11.10;62.50
44111;DHT22;29774;52.664;5.074;2024-03-02T14:12:52;11.10;63.10
44111;DHT22;29774;52.664;5.074;2024-03-02T14:15:18;11.10;63.10
44111;DHT22;29774;52.664;5.074;2024-03-02T14:17:44;11.10;62.40
44111;DHT22;29774;52.664;5.074;2024-03-02T14:20:10;11.10;62.30
44111;DHT22;29774;52.664;5.074;2024-03-02T14:22:37;11.20;62.40
44111;DHT22;29774;52.664;5.074;2024-03-02T14:25:03;11.20;62.20
44111;DHT22;29774;52.664;5.074;2024-03-02T14:27:29;11.20;61.80
44111;DHT22;29774;52.664;5.074;2024-03-02T14:29:55;11.20;62.20
44111;DHT22;29774;52.664;5.074;2024-03-02T14:32:20;11.30;61.10
44111;DHT22;29774;52.664;5.074;2024-03-02T14:34:46;11.30;61.30
44111;DHT22;29774;52.664;5.074;2024-03-02T14:37:13;11.30;61.20
44111;DHT22;29774;52.664;5.074;2024-03-02T14:39:39;11.30;61.40
44111;DHT22;29774;52.664;5.074;2024-03-02T14:42:05;11.40;61.60
44111;DHT22;29774;52.664;5.074;2024-03-02T14:44:30;11.40;60.80
44111;DHT22;29774;52.664;5.074;2024-03-02T14:46:56;11.40;60.70
44111;DHT22;29774;52.664;5.074;2024-03-02T14:49:25;11.50;61.30
44111;DHT22;29774;52.664;5.074;2024-03-02T14:51:51;11.50;61.20
44111;DHT22;29774;52.664;5.074;2024-03-02T14:54:17;11.50;61.70
44111;DHT22;29774;52.664;5.074;2024-03-02T14:56:43;11.50;61.50
44111;DHT22;29774;52.664;5.074;2024-03-02T14:59:08;11.50;61.70
44111;DHT22;29774;52.664;5.074;2024-03-02T15:01:36;11.50;61.90
44111;DHT22;29774;52.664;5.074;2024-03-02T15:04:02;11.60;61.70
44111;DHT22;29774;52.664;5.074;2024-03-02T15:06:27;11.60;61.50
44111;DHT22;29774;52.664;5.074;2024-03-02T15:08:53;11.70;61.10
44111;DHT22;29774;52.664;5.074;2024-03-02T15:11:20;11.60;61.30
44111;DHT22;29774;52.664;5.074;2024-03-02T15:13:47;11.70;60.70
44111;DHT22;29774;52.664;5.074;2024-03-02T15:16:13;11.70;60.20
44111;DHT22;29774;52.664;5.074;2024-03-02T15:18:38;11.70;60.30
44111;DHT22;29774;52.664;5.074;2024-03-02T15:21:04;11.70;60.70
44111;DHT22;29774;52.664;5.074;2024-03-02T15:23:30;11.70;61.00
44111;DHT22;29774;52.664;5.074;2024-03-02T15:25:56;11.60;61.10
44111;DHT22;29774;52.664;5.074;2024-03-02T15:28:21;11.50;61.70
44111;DHT22;29774;52.664;5.074;2024-03-02T15:30:47;11.40;62.00
44111;DHT22;29774;52.664;5.074;2024-03-02T15:33:13;11.40;62.60
44111;DHT22;29774;52.664;5.074;2024-03-02T15:35:38;11.30;62.70
44111;DHT22;29774;52.664;5.074;2024-03-02T15:38:04;11.20;62.80
44111;DHT22;29774;52.664;5.074;2024-03-02T15:40:29;11.20;63.00